createdAt,value
2022-08-18T00:04:03.839Z,95.86
2022-08-18T00:09:26.777Z,95.83
2022-08-18T00:14:34.890Z,90.97
2022-08-18T00:19:46.746Z,91.29
2022-08-18T00:24:53.635Z,96.97
2022-08-18T00:30:00.122Z,97.15
2022-08-18T00:35:09.952Z,93.88
2022-08-18T00:40:15.230Z,91.98
2022-08-18T00:45:22.724Z,94.36
2022-08-18T00:50:34.452Z,96.08
2022-08-18T00:55:39.842Z,93.47
2022-08-18T01:00:52.858Z,96.74
2022-08-18T01:06:00.900Z,100.00
2022-08-18T01:11:04.213Z,100.00
2022-08-18T01:16:23.265Z,100.00
2022-08-18T01:21:48.182Z,99.35
2022-08-18T01:26:52.651Z,100.00
2022-08-18T01:31:56.381Z,99.79
2022-08-18T01:36:59.949Z,100.00
2022-08-18T01:42:04.655Z,100.00
2022-08-18T01:47:07.557Z,100.00
2022-08-18T01:52:10.890Z,100.00
2022-08-18T01:57:15.568Z,100.00
2022-08-18T02:02:24.467Z,100.00
2022-08-18T02:07:34.270Z,100.00
2022-08-18T02:12:41.386Z,100.00
2022-08-18T02:17:46.605Z,100.00
2022-08-18T02:22:50.053Z,100.00
2022-08-18T02:27:54.166Z,100.00
2022-08-18T02:32:59.128Z,100.00
2022-08-18T02:38:02.304Z,100.00
2022-08-18T02:43:10.783Z,100.00
2022-08-18T02:48:13.792Z,100.00
2022-08-18T02:53:22.034Z,100.00
2022-08-18T02:58:30.437Z,100.00
2022-08-18T03:03:36.180Z,100.00
2022-08-18T03:08:38.948Z,100.00
2022-08-18T03:13:43.112Z,100.00
2022-08-18T03:18:47.054Z,100.00
2022-08-18T03:24:01.618Z,100.00
2022-08-18T03:29:06.919Z,100.00
2022-08-18T03:34:09.770Z,100.00
2022-08-18T03:39:14.205Z,100.00
2022-08-18T03:44:18.635Z,100.00
2022-08-18T03:49:21.792Z,100.00
2022-08-18T03:54:24.658Z,100.00
2022-08-18T03:59:31.689Z,100.00
2022-08-18T04:04:35.079Z,100.00
2022-08-18T04:09:40.157Z,100.00
2022-08-18T04:14:47.708Z,100.00
2022-08-18T04:19:51.188Z,100.00
2022-08-18T04:24:55.544Z,100.00
2022-08-18T04:29:59.739Z,100.00
2022-08-18T04:35:03.169Z,100.00
2022-08-18T04:40:07.434Z,100.00
2022-08-18T04:45:12.901Z,100.00
2022-08-18T04:50:15.709Z,100.00
2022-08-18T04:55:18.470Z,100.00
2022-08-18T05:00:23.135Z,100.00
2022-08-18T05:05:27.512Z,100.00
2022-08-18T05:10:30.309Z,100.00
2022-08-18T05:15:52.751Z,100.00
2022-08-18T05:20:57.888Z,100.00
2022-08-18T05:26:03.938Z,100.00
2022-08-18T05:31:14.064Z,100.00
2022-08-18T05:36:46.569Z,100.00
2022-08-18T05:41:52.982Z,100.00
2022-08-18T05:47:00.541Z,100.00
2022-08-18T05:52:07.303Z,100.00
2022-08-18T05:57:15.770Z,100.00
2022-08-18T06:02:33.739Z,100.00
2022-08-18T06:07:41.425Z,100.00
2022-08-18T06:12:47.568Z,100.00
2022-08-18T06:18:21.792Z,100.00
2022-08-18T06:23:32.757Z,100.00
2022-08-18T06:28:46.317Z,100.00
2022-08-18T06:34:02.110Z,100.00
2022-08-18T06:39:12.746Z,100.00
2022-08-18T06:44:22.764Z,100.00
2022-08-18T06:49:37.154Z,100.00
2022-08-18T06:54:47.878Z,100.00
2022-08-18T07:00:01.068Z,100.00
2022-08-18T07:05:08.982Z,100.00
2022-08-18T07:10:32.723Z,100.00
2022-08-18T07:15:35.764Z,100.00
2022-08-18T07:20:46.935Z,100.00
2022-08-18T07:25:54.012Z,100.00
2022-08-18T07:31:16.967Z,100.00
2022-08-18T07:36:26.860Z,100.00
2022-08-18T07:41:35.948Z,100.00
2022-08-18T07:46:47.185Z,100.00
2022-08-18T07:51:57.731Z,100.00
2022-08-18T07:57:07.429Z,100.00
2022-08-18T08:02:27.023Z,100.00
2022-08-18T08:07:37.710Z,100.00
2022-08-18T08:12:48.308Z,100.00
2022-08-18T08:18:00.390Z,100.00
2022-08-18T08:23:17.704Z,100.00
2022-08-18T08:28:31.497Z,99.91
2022-08-18T08:33:39.150Z,100.00
2022-08-18T08:38:48.654Z,100.00
2022-08-18T08:44:11.152Z,100.00
2022-08-18T08:49:26.589Z,100.00
2022-08-18T08:54:41.275Z,100.00
2022-08-18T08:59:47.058Z,100.00
2022-08-18T09:05:07.963Z,100.00
2022-08-18T09:10:45.469Z,99.92
2022-08-18T09:16:13.775Z,98.78
2022-08-18T09:21:30.860Z,94.15
2022-08-18T09:26:50.287Z,91.44
2022-08-18T09:32:30.663Z,92.79
2022-08-18T09:37:45.688Z,87.41
2022-08-18T09:42:58.904Z,83.00
2022-08-18T09:48:25.557Z,83.79
2022-08-18T09:54:11.978Z,83.43
2022-08-18T10:00:00.260Z,82.81
2022-08-18T10:05:27.873Z,83.17
2022-08-18T10:10:59.216Z,82.38
2022-08-18T10:16:16.717Z,82.34
2022-08-18T10:27:09.841Z,83.82
2022-08-18T10:32:39.417Z,82.80
2022-08-18T10:37:49.184Z,82.38
2022-08-18T10:43:26.975Z,83.18
2022-08-18T10:48:34.418Z,82.46
2022-08-18T10:53:46.260Z,82.67
2022-08-18T10:59:17.159Z,81.51
2022-08-18T11:04:33.967Z,81.91
2022-08-18T11:09:41.971Z,80.67
2022-08-18T11:15:22.376Z,80.10
2022-08-18T11:20:32.287Z,77.86
2022-08-18T11:25:38.218Z,77.53
2022-08-18T11:30:44.765Z,77.33
2022-08-18T11:35:53.958Z,77.16
2022-08-18T11:41:14.184Z,78.57
2022-08-18T11:52:03.204Z,81.02
2022-08-18T11:57:29.512Z,80.82
2022-08-18T12:02:32.364Z,82.50
2022-08-18T12:07:37.570Z,82.91
2022-08-18T12:12:46.874Z,80.70
2022-08-18T12:17:54.030Z,80.23
2022-08-18T12:22:58.261Z,79.67
2022-08-18T12:28:01.060Z,77.90
2022-08-18T12:33:10.110Z,74.00
2022-08-18T12:38:17.656Z,68.34
2022-08-18T12:43:21.337Z,68.15
2022-08-18T12:48:24.431Z,67.43
2022-08-18T12:53:55.728Z,67.38
2022-08-18T12:58:54.080Z,62.98
2022-08-18T13:09:48.057Z,62.57
2022-08-18T13:14:47.402Z,59.24
2022-08-18T13:19:50.329Z,59.97
2022-08-18T13:24:54.568Z,57.03
2022-08-18T13:29:57.286Z,52.61
2022-08-18T13:35:00.087Z,51.29
2022-08-18T13:40:07.946Z,50.44
2022-08-18T13:45:25.027Z,48.39
2022-08-18T13:50:29.918Z,47.72
2022-08-18T13:55:34.251Z,46.42
2022-08-18T14:00:37.882Z,45.08
2022-08-18T14:05:51.392Z,47.89
2022-08-18T14:11:00.574Z,43.78
2022-08-18T14:16:03.365Z,46.44
2022-08-18T14:21:23.734Z,47.98
2022-08-18T14:26:45.353Z,49.53
2022-08-18T14:31:48.881Z,44.89
2022-08-18T14:36:55.138Z,42.97
2022-08-18T14:41:59.660Z,40.34
2022-08-18T14:47:06.301Z,38.49
2022-08-18T14:52:13.900Z,37.40
2022-08-18T14:57:18.663Z,35.00
2022-08-18T15:02:28.601Z,33.45
2022-08-18T15:07:32.726Z,34.84
2022-08-18T15:12:37.293Z,35.41
2022-08-18T15:17:41.563Z,36.52
2022-08-18T15:23:04.850Z,35.42
2022-08-18T15:28:16.162Z,38.13
2022-08-18T15:33:24.442Z,35.65
2022-08-18T15:38:28.603Z,36.31
2022-08-18T15:43:33.842Z,35.21
2022-08-18T15:48:36.662Z,39.35
2022-08-18T15:53:44.457Z,39.42
2022-08-18T15:58:49.468Z,38.95
2022-08-18T16:03:55.008Z,40.91
2022-08-18T16:08:57.957Z,42.77
2022-08-18T16:14:02.022Z,42.53
2022-08-18T16:19:06.877Z,41.71
2022-08-18T16:24:10.453Z,42.23
2022-08-18T16:29:14.563Z,42.23
2022-08-18T16:34:17.400Z,44.80
2022-08-18T16:39:20.126Z,46.80
2022-08-18T16:44:24.870Z,49.00
2022-08-18T16:49:27.618Z,50.74
2022-08-18T16:54:30.423Z,51.91
2022-08-18T16:59:52.144Z,53.93
2022-08-18T17:04:55.079Z,53.98
2022-08-18T17:09:58.742Z,54.90
2022-08-18T17:15:02.788Z,56.45
2022-08-18T17:20:11.011Z,59.01
2022-08-18T17:25:21.185Z,59.42
2022-08-18T17:30:31.758Z,60.22
2022-08-18T17:35:37.474Z,61.48
2022-08-18T17:40:44.007Z,62.38
2022-08-18T17:45:55.485Z,63.03
2022-08-18T17:51:22.576Z,64.37
2022-08-18T17:56:35.451Z,65.39
2022-08-18T18:01:42.521Z,65.88
2022-08-18T18:06:46.293Z,67.16
2022-08-18T18:11:52.431Z,67.14
2022-08-18T18:17:12.779Z,67.75
2022-08-18T18:22:21.449Z,67.83
2022-08-18T18:27:27.929Z,68.19
2022-08-18T18:32:38.363Z,68.78
2022-08-18T18:37:47.284Z,68.42
2022-08-18T18:42:50.584Z,69.92
2022-08-18T18:48:04.400Z,69.66
2022-08-18T18:53:24.026Z,71.02
2022-08-18T18:58:37.801Z,71.26
2022-08-18T19:03:50.480Z,70.57
2022-08-18T19:09:03.650Z,72.02
2022-08-18T19:14:13.912Z,71.84
2022-08-18T19:19:38.045Z,72.26
2022-08-18T19:24:51.805Z,71.87
2022-08-18T19:30:00.170Z,72.32
2022-08-18T19:35:11.916Z,72.30
2022-08-18T19:40:20.218Z,72.71
2022-08-18T19:45:32.412Z,72.01
2022-08-18T19:50:42.217Z,72.92
2022-08-18T19:56:10.787Z,73.96
2022-08-18T20:01:23.718Z,74.51
2022-08-18T20:06:51.995Z,76.01
2022-08-18T20:12:06.811Z,75.04
2022-08-18T20:17:18.923Z,75.32
2022-08-18T20:22:36.251Z,76.53
2022-08-18T20:27:41.039Z,76.31
2022-08-18T20:32:43.823Z,76.15
2022-08-18T20:37:47.937Z,76.32
2022-08-18T20:43:06.546Z,78.68
2022-08-18T20:48:30.605Z,78.13
2022-08-18T20:53:58.302Z,79.46
2022-08-18T20:59:08.911Z,80.53
2022-08-18T21:04:11.892Z,80.29
2022-08-18T21:09:19.331Z,81.21
2022-08-18T21:14:28.708Z,80.54
2022-08-18T21:19:42.054Z,79.10
2022-08-18T21:24:49.890Z,79.78
2022-08-18T21:29:53.993Z,80.81
2022-08-18T21:34:56.946Z,82.08
2022-08-18T21:40:04.056Z,82.57
2022-08-18T21:45:08.353Z,81.75
2022-08-18T21:50:14.690Z,82.53
2022-08-18T21:55:25.026Z,84.56
2022-08-18T22:00:29.769Z,84.43
2022-08-18T22:05:59.057Z,85.99
2022-08-18T22:11:59.746Z,86.97
2022-08-18T22:17:27.437Z,85.50
2022-08-18T22:22:48.769Z,85.64
2022-08-18T22:27:53.544Z,87.12
2022-08-18T22:32:56.351Z,88.67
2022-08-18T22:38:00.670Z,89.99
2022-08-18T22:43:04.967Z,89.76
2022-08-18T22:48:07.711Z,93.34
2022-08-18T22:53:10.676Z,91.54
2022-08-18T22:58:15.985Z,91.08
2022-08-18T23:03:23.988Z,89.03
2022-08-18T23:08:38.294Z,90.36
2022-08-18T23:13:52.530Z,94.50
2022-08-18T23:18:55.537Z,94.57
2022-08-18T23:23:58.255Z,95.07
2022-08-18T23:29:02.387Z,92.56
2022-08-18T23:34:05.755Z,91.84
2022-08-18T23:39:08.488Z,93.07
2022-08-18T23:44:13.749Z,96.90
2022-08-18T23:49:18.777Z,95.64
2022-08-18T23:54:23.502Z,98.34
2022-08-18T23:59:29.054Z,99.66
